createdAt,value
2019-01-30T00:00:29.552Z,3.40
2019-01-30T00:01:31.122Z,3.33
2019-01-30T00:02:31.983Z,3.46
2019-01-30T00:03:32.941Z,3.32
2019-01-30T00:04:34.014Z,3.22
2019-01-30T00:05:34.884Z,3.34
2019-01-30T00:06:35.744Z,3.35
2019-01-30T00:07:36.597Z,3.40
2019-01-30T00:08:37.454Z,3.42
2019-01-30T00:09:38.344Z,3.36
2019-01-30T00:10:39.196Z,3.00
2019-01-30T00:11:40.052Z,3.07
2019-01-30T00:12:40.950Z,3.09
2019-01-30T00:13:41.841Z,2.67
2019-01-30T00:14:42.697Z,2.96
2019-01-30T00:15:43.554Z,2.73
2019-01-30T00:16:44.412Z,2.52
2019-01-30T00:17:45.261Z,2.90
2019-01-30T00:18:46.125Z,3.07
2019-01-30T00:19:46.972Z,2.68
2019-01-30T00:20:47.824Z,2.52
2019-01-30T00:21:48.728Z,2.84
2019-01-30T00:22:49.587Z,2.80
2019-01-30T00:23:50.448Z,2.62
2019-01-30T00:24:51.310Z,2.73
2019-01-30T00:25:52.165Z,2.84
2019-01-30T00:26:53.046Z,2.90
2019-01-30T00:27:53.900Z,2.89
2019-01-30T00:28:54.764Z,3.05
2019-01-30T00:30:03.823Z,2.70
2019-01-30T00:30:58.414Z,2.96
2019-01-30T00:31:59.275Z,3.05
2019-01-30T00:33:00.126Z,2.55
2019-01-30T00:34:01.079Z,2.79
2019-01-30T00:35:02.544Z,2.65
2019-01-30T00:36:03.552Z,2.86
2019-01-30T00:37:04.420Z,2.78
2019-01-30T00:38:05.281Z,2.51
2019-01-30T00:39:06.137Z,2.74
2019-01-30T00:40:09.892Z,2.74
2019-01-30T00:41:10.812Z,2.82
2019-01-30T00:42:11.675Z,2.80
2019-01-30T00:43:12.539Z,2.51
2019-01-30T00:44:13.398Z,2.67
2019-01-30T00:45:15.953Z,2.66
2019-01-30T00:46:16.876Z,2.58
2019-01-30T00:47:17.713Z,2.56
2019-01-30T00:48:18.564Z,2.68
2019-01-30T00:50:38.137Z,2.52
2019-01-30T00:52:17.202Z,2.63
2019-01-30T00:53:18.069Z,2.71
2019-01-30T00:54:18.919Z,2.56
2019-01-30T00:55:19.781Z,2.53
2019-01-30T00:56:20.644Z,2.53
2019-01-30T00:57:21.545Z,2.40
2019-01-30T00:58:22.405Z,2.48
2019-01-30T00:59:23.265Z,2.32
2019-01-30T01:00:26.232Z,2.43
2019-01-30T01:01:27.091Z,2.40
2019-01-30T01:02:27.987Z,2.35
2019-01-30T01:03:28.852Z,2.32
2019-01-30T01:04:29.726Z,2.33
2019-01-30T01:05:30.584Z,2.25
2019-01-30T01:06:31.436Z,2.31
2019-01-30T01:07:32.330Z,2.29
2019-01-30T01:08:33.289Z,2.21
2019-01-30T01:09:34.188Z,2.29
2019-01-30T01:10:34.997Z,2.30
2019-01-30T01:11:35.865Z,2.27
2019-01-30T01:12:36.744Z,2.19
2019-01-30T01:13:37.588Z,2.24
2019-01-30T01:14:38.446Z,2.17
2019-01-30T01:15:39.452Z,2.11
2019-01-30T01:16:40.314Z,2.13
2019-01-30T01:17:41.174Z,1.91
2019-01-30T01:18:42.022Z,2.01
2019-01-30T01:19:42.978Z,2.06
2019-01-30T01:20:43.986Z,2.10
2019-01-30T01:21:44.840Z,2.06
2019-01-30T01:22:45.696Z,2.01
2019-01-30T01:23:46.548Z,2.00
2019-01-30T01:24:47.410Z,1.84
2019-01-30T01:25:48.278Z,1.94
2019-01-30T01:26:49.149Z,1.90
2019-01-30T01:27:50.003Z,1.88
2019-01-30T01:28:50.858Z,1.65
2019-01-30T01:29:51.717Z,1.89
2019-01-30T01:30:52.614Z,1.87
2019-01-30T01:31:53.478Z,1.86
2019-01-30T01:32:54.372Z,1.87
2019-01-30T01:33:55.260Z,1.83
2019-01-30T01:34:56.116Z,2.12
2019-01-30T01:35:57.095Z,1.85
2019-01-30T01:36:59.859Z,1.80
2019-01-30T01:38:00.827Z,1.74
2019-01-30T01:39:01.783Z,2.01
2019-01-30T01:40:08.367Z,1.85
2019-01-30T01:41:09.240Z,1.80
2019-01-30T01:42:10.102Z,1.78
2019-01-30T01:43:10.952Z,1.79
2019-01-30T01:44:11.803Z,1.75
2019-01-30T01:45:18.422Z,1.73
2019-01-30T01:46:19.301Z,1.76
2019-01-30T01:47:20.175Z,1.80
2019-01-30T01:48:21.061Z,1.73
2019-01-30T01:49:21.930Z,1.63
2019-01-30T01:50:22.772Z,1.61
2019-01-30T01:51:23.637Z,1.67
2019-01-30T01:52:24.499Z,1.59
2019-01-30T01:54:00.810Z,1.59
2019-01-30T01:55:01.779Z,1.65
2019-01-30T01:56:02.740Z,1.71
2019-01-30T01:57:03.686Z,1.72
2019-01-30T01:58:04.692Z,1.76
2019-01-30T01:59:05.592Z,1.72
2019-01-30T02:00:09.852Z,1.65
2019-01-30T02:01:10.703Z,1.70
2019-01-30T02:02:11.562Z,1.67
2019-01-30T02:03:12.407Z,1.70
2019-01-30T02:04:13.276Z,1.72
2019-01-30T02:05:15.933Z,1.70
2019-01-30T02:06:16.796Z,1.67
2019-01-30T02:07:17.716Z,1.68
2019-01-30T02:08:18.608Z,1.63
2019-01-30T02:09:19.470Z,1.64
2019-01-30T02:10:24.103Z,1.69
2019-01-30T02:11:24.994Z,1.61
2019-01-30T02:12:25.842Z,1.49
2019-01-30T02:13:26.734Z,1.56
2019-01-30T02:14:27.578Z,1.53
2019-01-30T02:15:28.443Z,1.57
2019-01-30T02:16:29.302Z,1.65
2019-01-30T02:17:30.158Z,1.57
2019-01-30T02:18:31.060Z,1.56
2019-01-30T02:19:31.922Z,1.63
2019-01-30T02:20:33.885Z,1.61
2019-01-30T02:21:34.736Z,1.60
2019-01-30T02:22:35.586Z,1.62
2019-01-30T02:23:36.470Z,1.65
2019-01-30T02:24:37.318Z,1.51
2019-01-30T02:25:38.176Z,1.54
2019-01-30T02:26:39.028Z,1.60
2019-01-30T02:27:40.003Z,1.31
2019-01-30T02:28:40.886Z,1.11
2019-01-30T02:29:41.756Z,1.15
2019-01-30T02:30:47.473Z,0.89
2019-01-30T02:31:45.486Z,1.01
2019-01-30T02:32:46.336Z,0.99
2019-01-30T02:33:49.108Z,0.99
2019-01-30T02:34:49.981Z,0.99
2019-01-30T02:35:50.932Z,1.11
2019-01-30T02:36:54.927Z,1.12
2019-01-30T02:37:55.784Z,1.21
2019-01-30T02:38:56.802Z,1.25
2019-01-30T02:39:57.695Z,1.26
2019-01-30T02:40:58.548Z,1.24
2019-01-30T02:41:59.412Z,1.26
2019-01-30T02:43:00.272Z,1.32
2019-01-30T02:44:03.210Z,1.35
2019-01-30T02:45:09.940Z,1.34
2019-01-30T02:46:10.800Z,1.14
2019-01-30T02:47:11.656Z,1.21
2019-01-30T02:48:12.529Z,1.28
2019-01-30T02:49:13.396Z,1.32
2019-01-30T02:50:16.286Z,1.39
2019-01-30T02:51:17.148Z,1.40
2019-01-30T02:52:18.012Z,1.31
2019-01-30T02:53:18.872Z,1.33
2019-01-30T02:54:19.738Z,1.25
2019-01-30T02:55:20.661Z,1.38
2019-01-30T02:56:21.502Z,1.35
2019-01-30T02:57:22.356Z,1.32
2019-01-30T02:58:23.218Z,1.21
2019-01-30T02:59:24.084Z,1.32
2019-01-30T03:00:27.086Z,1.27
2019-01-30T03:01:28.046Z,1.38
2019-01-30T03:02:28.920Z,1.37
2019-01-30T03:03:29.776Z,1.45
2019-01-30T03:04:30.633Z,1.35
2019-01-30T03:05:31.622Z,1.42
2019-01-30T03:06:32.479Z,1.39
2019-01-30T03:07:33.439Z,1.32
2019-01-30T03:08:34.322Z,1.39
2019-01-30T03:09:35.197Z,1.36
2019-01-30T03:10:36.058Z,1.44
2019-01-30T03:11:36.913Z,1.10
2019-01-30T03:12:37.766Z,1.03
2019-01-30T03:13:38.647Z,0.53
2019-01-30T03:14:39.498Z,0.90
2019-01-30T03:15:40.356Z,1.08
2019-01-30T03:16:41.255Z,1.26
2019-01-30T03:17:42.119Z,1.15
2019-01-30T03:18:42.982Z,1.19
2019-01-30T03:19:43.838Z,1.27
2019-01-30T03:20:44.803Z,1.23
2019-01-30T03:21:45.760Z,1.27
2019-01-30T03:22:46.614Z,1.36
2019-01-30T03:23:47.484Z,1.33
2019-01-30T03:24:48.342Z,1.12
2019-01-30T03:25:49.245Z,1.10
2019-01-30T03:26:50.103Z,1.26
2019-01-30T03:27:50.956Z,1.25
2019-01-30T03:28:51.813Z,1.26
2019-01-30T03:29:52.668Z,1.26
2019-01-30T03:30:53.559Z,1.21
2019-01-30T03:31:54.402Z,1.18
2019-01-30T03:32:55.357Z,1.11
2019-01-30T03:33:56.226Z,0.86
2019-01-30T03:34:57.080Z,0.84
2019-01-30T03:35:57.996Z,1.04
2019-01-30T03:36:58.840Z,1.24
2019-01-30T03:37:59.827Z,1.24
2019-01-30T03:39:00.664Z,1.28
2019-01-30T03:40:01.516Z,1.20
2019-01-30T03:41:02.416Z,1.35
2019-01-30T03:42:03.389Z,1.39
2019-01-30T03:43:04.240Z,1.39
2019-01-30T03:44:05.090Z,1.35
2019-01-30T03:45:08.549Z,1.33
2019-01-30T03:46:09.445Z,1.33
2019-01-30T03:47:10.310Z,1.20
2019-01-30T03:48:11.164Z,0.97
2019-01-30T03:49:12.026Z,1.19
2019-01-30T03:50:13.983Z,1.21
2019-01-30T03:51:14.884Z,1.14
2019-01-30T03:52:15.732Z,1.04
2019-01-30T03:53:16.588Z,1.06
2019-01-30T03:54:17.457Z,0.98
2019-01-30T03:55:19.357Z,0.63
2019-01-30T03:56:20.233Z,0.92
2019-01-30T03:57:21.087Z,1.03
2019-01-30T03:58:21.949Z,1.06
2019-01-30T03:59:22.800Z,1.02
2019-01-30T04:00:25.104Z,0.99
2019-01-30T04:01:26.898Z,0.72
2019-01-30T04:02:27.936Z,0.99
2019-01-30T04:03:28.819Z,1.09
2019-01-30T04:04:29.674Z,1.02
2019-01-30T04:05:30.588Z,1.05
2019-01-30T04:06:31.442Z,1.07
2019-01-30T04:07:32.299Z,1.02
2019-01-30T04:08:33.261Z,1.05
2019-01-30T04:09:34.143Z,1.06
2019-01-30T04:10:35.018Z,0.98
2019-01-30T04:11:35.879Z,1.09
2019-01-30T04:12:36.718Z,1.11
2019-01-30T04:13:37.579Z,1.17
2019-01-30T04:14:38.477Z,1.16
2019-01-30T04:15:39.334Z,1.13
2019-01-30T04:16:40.199Z,1.17
2019-01-30T04:17:41.063Z,1.16
2019-01-30T04:18:41.912Z,1.26
2019-01-30T04:19:42.778Z,1.26
2019-01-30T04:20:43.628Z,1.27
2019-01-30T04:21:44.492Z,1.28
2019-01-30T04:22:45.386Z,1.29
2019-01-30T04:23:46.252Z,1.26
2019-01-30T04:24:47.104Z,1.36
2019-01-30T04:25:47.958Z,1.42
2019-01-30T04:26:48.830Z,1.40
2019-01-30T04:27:49.716Z,1.41
2019-01-30T04:28:50.586Z,1.46
2019-01-30T04:29:51.437Z,1.45
2019-01-30T04:30:52.296Z,1.35
2019-01-30T04:31:53.161Z,1.40
2019-01-30T04:32:54.052Z,1.22
2019-01-30T04:33:54.946Z,1.00
2019-01-30T04:34:55.818Z,0.72
2019-01-30T04:35:56.901Z,0.92
2019-01-30T04:36:57.836Z,0.70
2019-01-30T04:37:58.713Z,1.09
2019-01-30T04:38:59.582Z,1.09
2019-01-30T04:40:00.430Z,1.32
2019-01-30T04:41:01.342Z,1.34
2019-01-30T04:42:02.335Z,1.35
2019-01-30T04:43:03.402Z,1.41
2019-01-30T04:44:04.311Z,1.31
2019-01-30T04:45:08.967Z,1.50
2019-01-30T04:46:09.828Z,1.41
2019-01-30T04:47:10.698Z,1.54
2019-01-30T04:48:11.561Z,1.50
2019-01-30T04:49:12.434Z,1.26
2019-01-30T04:50:13.285Z,1.34
2019-01-30T04:51:14.138Z,1.48
2019-01-30T04:52:14.998Z,1.51
2019-01-30T04:53:15.862Z,1.62
2019-01-30T04:54:16.807Z,1.46
2019-01-30T04:55:17.718Z,1.49
2019-01-30T04:56:18.613Z,1.54
2019-01-30T04:57:19.429Z,1.35
2019-01-30T04:58:20.290Z,1.42
2019-01-30T04:59:24.523Z,1.52
2019-01-30T05:00:25.440Z,1.47
2019-01-30T05:01:26.293Z,1.54
2019-01-30T05:02:27.140Z,1.55
2019-01-30T05:03:28.000Z,1.63
2019-01-30T05:04:28.865Z,1.72
2019-01-30T05:05:29.774Z,1.64
2019-01-30T05:06:30.621Z,1.80
2019-01-30T05:07:31.487Z,1.75
2019-01-30T05:08:32.369Z,1.63
2019-01-30T05:09:33.338Z,1.71
2019-01-30T05:10:34.219Z,1.72
2019-01-30T05:11:35.082Z,1.76
2019-01-30T05:12:36.055Z,1.76
2019-01-30T05:13:36.957Z,1.73
2019-01-30T05:14:37.814Z,1.75
2019-01-30T05:15:38.663Z,1.75
2019-01-30T05:16:39.535Z,1.78
2019-01-30T05:17:40.395Z,1.86
2019-01-30T05:18:41.295Z,1.78
2019-01-30T05:19:42.156Z,1.78
2019-01-30T05:20:43.011Z,1.83
2019-01-30T05:21:43.913Z,1.58
2019-01-30T05:22:44.784Z,1.81
2019-01-30T05:23:45.646Z,1.83
2019-01-30T05:24:46.524Z,1.85
2019-01-30T05:25:47.353Z,1.87
2019-01-30T05:26:48.255Z,1.80
2019-01-30T05:27:49.125Z,1.81
2019-01-30T05:28:49.978Z,1.72
2019-01-30T05:29:50.841Z,1.73
2019-01-30T05:30:51.693Z,1.80
2019-01-30T05:32:00.858Z,1.56
2019-01-30T05:32:55.358Z,1.08
2019-01-30T05:33:56.213Z,1.57
2019-01-30T05:34:57.075Z,1.72
2019-01-30T05:36:00.141Z,1.71
2019-01-30T05:37:03.855Z,1.75
2019-01-30T05:38:04.715Z,1.75
2019-01-30T05:39:06.818Z,1.83
2019-01-30T05:40:11.275Z,1.89
2019-01-30T05:41:12.136Z,1.79
2019-01-30T05:42:13.111Z,1.84
2019-01-30T05:43:13.965Z,1.83
2019-01-30T05:44:14.963Z,1.78
2019-01-30T05:45:16.227Z,1.87
2019-01-30T05:46:17.111Z,1.74
2019-01-30T05:47:17.975Z,1.78
2019-01-30T05:48:18.857Z,1.73
2019-01-30T05:49:19.749Z,1.82
2019-01-30T05:50:20.614Z,1.83
2019-01-30T05:51:21.472Z,1.77
2019-01-30T05:52:22.320Z,1.77
2019-01-30T05:53:23.176Z,1.93
2019-01-30T05:54:24.087Z,1.88
2019-01-30T05:55:24.955Z,1.93
2019-01-30T05:56:25.815Z,2.01
2019-01-30T05:57:26.681Z,2.00
2019-01-30T05:58:27.537Z,1.93
2019-01-30T05:59:28.437Z,1.91
2019-01-30T06:00:33.516Z,1.93
2019-01-30T06:01:34.389Z,2.00
2019-01-30T06:02:35.257Z,2.04
2019-01-30T06:03:36.111Z,2.04
2019-01-30T06:04:37.002Z,2.21
2019-01-30T06:05:37.849Z,2.13
2019-01-30T06:06:38.711Z,1.95
2019-01-30T06:07:39.565Z,1.99
2019-01-30T06:08:40.478Z,1.98
2019-01-30T06:09:42.055Z,1.89
2019-01-30T06:10:42.928Z,1.90
2019-01-30T06:11:43.781Z,1.97
2019-01-30T06:12:44.635Z,2.03
2019-01-30T06:13:45.539Z,2.01
2019-01-30T06:14:46.400Z,2.03
2019-01-30T06:15:47.255Z,1.97
2019-01-30T06:16:48.122Z,1.92
2019-01-30T06:17:48.971Z,1.56
2019-01-30T06:18:49.871Z,1.73
2019-01-30T06:19:50.735Z,1.91
2019-01-30T06:20:51.583Z,1.91
2019-01-30T06:21:52.442Z,1.84
2019-01-30T06:22:54.206Z,1.68
2019-01-30T06:23:55.108Z,1.77
2019-01-30T06:24:55.973Z,1.67
2019-01-30T06:25:56.837Z,1.92
2019-01-30T06:26:57.698Z,1.99
2019-01-30T06:27:58.562Z,1.99
2019-01-30T06:28:59.461Z,2.04
2019-01-30T06:30:00.368Z,2.13
2019-01-30T06:31:01.216Z,2.10
2019-01-30T06:32:02.073Z,2.06
2019-01-30T06:33:03.061Z,2.06
2019-01-30T06:34:03.999Z,2.04
2019-01-30T06:35:04.844Z,2.07
2019-01-30T06:36:05.694Z,1.88
2019-01-30T06:37:06.551Z,1.86
2019-01-30T06:38:07.411Z,1.99
2019-01-30T06:39:08.433Z,2.04
2019-01-30T06:40:13.105Z,2.08
2019-01-30T06:41:13.981Z,1.99
2019-01-30T06:42:14.836Z,2.03
2019-01-30T06:43:15.692Z,2.00
2019-01-30T06:44:16.589Z,2.07
2019-01-30T06:45:17.457Z,2.20
2019-01-30T06:46:18.317Z,1.73
2019-01-30T06:47:19.176Z,2.08
2019-01-30T06:48:20.057Z,2.02
2019-01-30T06:49:21.005Z,2.15
2019-01-30T06:50:21.871Z,2.16
2019-01-30T06:51:22.793Z,2.16
2019-01-30T06:52:23.642Z,2.07
2019-01-30T06:53:26.415Z,1.77
2019-01-30T06:54:27.335Z,1.60
2019-01-30T06:55:28.206Z,1.53
2019-01-30T06:56:29.479Z,1.80
2019-01-30T06:57:30.348Z,1.94
2019-01-30T06:58:31.197Z,2.05
2019-01-30T06:59:32.054Z,2.05
2019-01-30T07:00:33.041Z,2.04
2019-01-30T07:01:33.936Z,2.13
2019-01-30T07:02:34.835Z,2.15
2019-01-30T07:03:35.714Z,2.18
2019-01-30T07:04:36.569Z,2.27
2019-01-30T07:05:37.426Z,2.32
2019-01-30T07:06:38.324Z,2.33
2019-01-30T07:07:39.187Z,2.29
2019-01-30T07:08:40.061Z,2.27
2019-01-30T07:09:40.918Z,2.17
2019-01-30T07:10:41.816Z,1.99
2019-01-30T07:11:42.691Z,2.04
2019-01-30T07:12:43.561Z,2.17
2019-01-30T07:13:44.431Z,2.16
2019-01-30T07:14:45.277Z,2.20
2019-01-30T07:15:46.172Z,2.26
2019-01-30T07:16:47.056Z,2.20
2019-01-30T07:17:47.917Z,2.30
2019-01-30T07:18:48.797Z,2.38
2019-01-30T07:19:49.653Z,2.37
2019-01-30T07:20:50.516Z,2.35
2019-01-30T07:21:51.415Z,2.38
2019-01-30T07:22:52.276Z,2.41
2019-01-30T07:23:53.137Z,2.36
2019-01-30T07:24:54.028Z,2.43
2019-01-30T07:25:54.876Z,2.42
2019-01-30T07:26:55.779Z,2.46
2019-01-30T07:27:56.643Z,2.46
2019-01-30T07:28:57.502Z,2.52
2019-01-30T07:30:04.508Z,2.44
2019-01-30T07:31:05.378Z,2.50
2019-01-30T07:32:06.275Z,2.38
2019-01-30T07:33:07.139Z,2.12
2019-01-30T07:34:08.007Z,2.07
2019-01-30T07:35:08.859Z,2.16
2019-01-30T07:36:09.721Z,2.22
2019-01-30T07:37:10.621Z,2.41
2019-01-30T07:38:11.496Z,2.50
2019-01-30T07:39:12.391Z,2.51
2019-01-30T07:40:14.457Z,2.56
2019-01-30T07:41:15.319Z,2.46
2019-01-30T07:42:16.311Z,2.57
2019-01-30T07:43:17.167Z,2.68
2019-01-30T07:44:18.023Z,2.55
2019-01-30T07:45:22.337Z,2.61
2019-01-30T07:46:23.427Z,2.68
2019-01-30T07:47:24.663Z,2.50
2019-01-30T07:48:27.327Z,2.48
2019-01-30T07:49:28.308Z,2.29
2019-01-30T07:50:29.171Z,2.44
2019-01-30T07:51:30.025Z,2.41
2019-01-30T07:52:32.717Z,2.23
2019-01-30T07:53:33.789Z,2.07
2019-01-30T07:54:34.657Z,2.40
2019-01-30T07:55:37.652Z,2.52
2019-01-30T07:56:38.898Z,2.56
2019-01-30T07:57:40.437Z,2.84
2019-01-30T07:58:41.881Z,2.77
2019-01-30T07:59:50.541Z,2.93
2019-01-30T08:00:51.779Z,2.72
2019-01-30T08:01:52.679Z,2.83
2019-01-30T08:02:53.837Z,2.66
2019-01-30T08:03:54.937Z,3.01
2019-01-30T08:04:55.830Z,2.83
2019-01-30T08:05:56.654Z,2.77
2019-01-30T08:06:57.506Z,2.46
2019-01-30T08:07:58.585Z,2.59
2019-01-30T08:08:59.493Z,2.58
2019-01-30T08:10:00.418Z,2.75
2019-01-30T08:11:01.317Z,2.54
2019-01-30T08:12:02.169Z,2.50
2019-01-30T08:13:03.432Z,2.58
2019-01-30T08:14:04.381Z,2.63
2019-01-30T08:15:09.003Z,2.57
2019-01-30T08:16:09.969Z,2.62
2019-01-30T08:17:10.848Z,2.76
2019-01-30T08:18:11.687Z,2.87
2019-01-30T08:19:12.563Z,2.97
2019-01-30T08:20:15.607Z,3.11
2019-01-30T08:21:16.544Z,3.15
2019-01-30T08:22:17.394Z,3.18
2019-01-30T08:23:18.745Z,3.33
2019-01-30T08:24:19.784Z,3.18
2019-01-30T08:25:21.891Z,3.08
2019-01-30T08:26:25.556Z,2.98
2019-01-30T08:27:25.741Z,3.04
2019-01-30T08:28:26.961Z,2.98
2019-01-30T08:29:27.944Z,2.99
2019-01-30T08:30:28.934Z,2.85
2019-01-30T08:31:30.311Z,3.02
2019-01-30T08:32:31.359Z,2.88
2019-01-30T08:33:32.295Z,3.05
2019-01-30T08:34:33.276Z,2.81
2019-01-30T08:35:34.143Z,3.05
2019-01-30T08:36:35.031Z,3.00
2019-01-30T08:37:38.404Z,3.15
2019-01-30T08:38:38.671Z,3.26
2019-01-30T08:39:39.532Z,2.96
2019-01-30T08:40:40.415Z,3.03
2019-01-30T08:41:41.314Z,3.10
2019-01-30T08:42:42.169Z,3.16
2019-01-30T08:43:43.030Z,2.82
2019-01-30T08:44:47.013Z,2.96
2019-01-30T08:45:46.661Z,3.02
2019-01-30T08:46:47.623Z,2.98
2019-01-30T08:47:48.491Z,3.13
2019-01-30T08:48:49.337Z,3.11
2019-01-30T08:49:50.209Z,2.89
2019-01-30T08:50:51.075Z,3.14
2019-01-30T08:51:51.968Z,3.30
2019-01-30T08:52:52.831Z,3.40
2019-01-30T08:53:53.683Z,3.46
2019-01-30T08:54:54.655Z,3.51
2019-01-30T08:55:55.633Z,3.16
2019-01-30T08:56:56.586Z,3.37
2019-01-30T08:57:57.498Z,3.51
2019-01-30T08:58:58.458Z,3.59
2019-01-30T08:59:59.316Z,3.53
2019-01-30T09:01:00.230Z,3.66
2019-01-30T09:02:01.111Z,3.43
2019-01-30T09:03:01.967Z,3.90
2019-01-30T09:04:02.943Z,3.79
2019-01-30T09:05:06.583Z,3.62
2019-01-30T09:06:07.461Z,3.65
2019-01-30T09:07:08.429Z,3.56
2019-01-30T09:08:09.302Z,3.49
2019-01-30T09:09:10.209Z,3.42
2019-01-30T09:10:13.986Z,3.63
2019-01-30T09:11:14.899Z,3.52
2019-01-30T09:12:15.730Z,3.58
2019-01-30T09:13:16.580Z,3.44
2019-01-30T09:14:17.433Z,3.61
2019-01-30T09:15:20.439Z,3.70
2019-01-30T09:16:21.305Z,3.72
2019-01-30T09:17:22.152Z,3.83
2019-01-30T09:18:23.017Z,3.75
2019-01-30T09:19:23.880Z,3.75
2019-01-30T09:20:24.895Z,3.88
2019-01-30T09:21:25.763Z,3.71
2019-01-30T09:22:26.617Z,3.79
2019-01-30T09:23:27.475Z,3.96
2019-01-30T09:24:28.343Z,3.91
2019-01-30T09:25:29.423Z,3.83
2019-01-30T09:26:30.284Z,3.75
2019-01-30T09:27:31.159Z,3.72
2019-01-30T09:28:32.015Z,3.65
2019-01-30T09:29:32.871Z,3.75
2019-01-30T09:30:35.859Z,3.77
2019-01-30T09:31:36.733Z,3.57
2019-01-30T09:32:37.607Z,3.76
2019-01-30T09:33:38.453Z,3.92
2019-01-30T09:34:39.329Z,3.99
2019-01-30T09:35:40.239Z,4.04
2019-01-30T09:36:41.061Z,4.07
2019-01-30T09:37:41.920Z,4.08
2019-01-30T09:38:42.793Z,3.69
2019-01-30T09:39:43.657Z,3.80
2019-01-30T09:40:44.643Z,3.99
2019-01-30T09:41:45.472Z,4.05
2019-01-30T09:42:46.394Z,4.05
2019-01-30T09:43:47.297Z,4.09
2019-01-30T09:44:48.159Z,4.22
2019-01-30T09:45:49.065Z,4.07
2019-01-30T09:46:49.894Z,4.37
2019-01-30T09:47:50.762Z,4.13
2019-01-30T09:48:51.623Z,4.20
2019-01-30T09:49:52.665Z,4.07
2019-01-30T09:50:53.544Z,3.93
2019-01-30T09:51:54.373Z,4.04
2019-01-30T09:52:55.237Z,4.11
2019-01-30T09:53:57.635Z,4.12
2019-01-30T09:54:58.671Z,4.28
2019-01-30T09:55:59.668Z,4.11
2019-01-30T09:57:00.506Z,4.04
2019-01-30T09:58:01.405Z,4.12
2019-01-30T09:59:02.274Z,4.28
2019-01-30T10:00:09.962Z,4.12
2019-01-30T10:01:10.828Z,4.17
2019-01-30T10:02:11.687Z,4.25
2019-01-30T10:03:12.596Z,4.38
2019-01-30T10:04:13.461Z,4.22
2019-01-30T10:05:14.322Z,4.30
2019-01-30T10:06:15.192Z,4.33
2019-01-30T10:07:16.051Z,4.39
2019-01-30T10:08:16.958Z,4.40
2019-01-30T10:09:17.804Z,4.48
2019-01-30T10:10:24.860Z,4.45
2019-01-30T10:11:25.717Z,4.55
2019-01-30T10:12:26.594Z,4.45
2019-01-30T10:13:27.497Z,4.58
2019-01-30T10:14:28.361Z,4.51
2019-01-30T10:15:36.151Z,4.39
2019-01-30T10:16:37.058Z,4.04
2019-01-30T10:17:38.030Z,4.39
2019-01-30T10:18:38.924Z,4.27
2019-01-30T10:19:41.808Z,4.27
2019-01-30T10:20:44.759Z,4.11
2019-01-30T10:21:45.720Z,4.15
2019-01-30T10:22:46.676Z,4.23
2019-01-30T10:23:47.580Z,4.36
2019-01-30T10:24:50.475Z,4.33
2019-01-30T10:25:51.296Z,4.34
2019-01-30T10:26:52.155Z,4.24
2019-01-30T10:27:53.004Z,4.23
2019-01-30T10:28:53.867Z,4.26
2019-01-30T10:29:54.722Z,4.28
2019-01-30T10:30:55.644Z,4.14
2019-01-30T10:31:56.500Z,4.09
2019-01-30T10:32:57.359Z,4.23
2019-01-30T10:33:58.221Z,4.34
2019-01-30T10:34:59.078Z,4.39
2019-01-30T10:35:59.987Z,4.34
2019-01-30T10:37:03.565Z,4.22
2019-01-30T10:38:03.815Z,4.27
2019-01-30T10:39:07.092Z,4.31
2019-01-30T10:40:14.622Z,4.37
2019-01-30T10:41:15.532Z,4.14
2019-01-30T10:42:16.400Z,3.91
2019-01-30T10:43:17.257Z,3.80
2019-01-30T10:44:18.130Z,4.02
2019-01-30T10:45:18.978Z,4.00
2019-01-30T10:46:19.881Z,3.98
2019-01-30T10:47:20.754Z,4.11
2019-01-30T10:48:21.711Z,4.20
2019-01-30T10:49:22.576Z,4.26
2019-01-30T10:50:26.733Z,4.23
2019-01-30T10:51:27.608Z,4.27
2019-01-30T10:52:28.464Z,3.99
2019-01-30T10:53:29.370Z,3.83
2019-01-30T10:54:30.232Z,4.05
2019-01-30T10:55:33.520Z,4.20
2019-01-30T10:56:34.396Z,3.94
2019-01-30T10:57:35.262Z,4.16
2019-01-30T10:58:36.143Z,4.12
2019-01-30T10:59:37.002Z,4.15
2019-01-30T11:00:44.162Z,4.25
2019-01-30T11:01:45.054Z,4.28
2019-01-30T11:02:46.533Z,4.35
2019-01-30T11:03:56.803Z,4.11
2019-01-30T11:04:50.356Z,3.96
2019-01-30T11:05:51.218Z,4.10
2019-01-30T11:06:52.066Z,4.23
2019-01-30T11:07:52.918Z,4.25
2019-01-30T11:08:53.778Z,4.27
2019-01-30T11:09:54.668Z,3.97
2019-01-30T11:10:55.663Z,4.27
2019-01-30T11:11:58.456Z,4.32
2019-01-30T11:12:59.286Z,4.41
2019-01-30T11:14:00.140Z,4.48
2019-01-30T11:15:02.838Z,4.41
2019-01-30T11:16:03.933Z,4.46
2019-01-30T11:17:04.794Z,4.48
2019-01-30T11:18:07.466Z,4.40
2019-01-30T11:19:08.440Z,4.48
2019-01-30T11:20:12.340Z,4.17
2019-01-30T11:21:13.196Z,4.16
2019-01-30T11:22:14.053Z,4.27
2019-01-30T11:23:14.917Z,4.22
2019-01-30T11:24:24.759Z,4.29
2019-01-30T11:29:03.202Z,4.62
2019-01-30T11:30:07.516Z,4.46
2019-01-30T11:31:08.512Z,4.65
2019-01-30T11:32:09.397Z,4.68
2019-01-30T11:33:10.235Z,4.33
2019-01-30T11:34:11.090Z,4.43
2019-01-30T11:35:11.954Z,4.44
2019-01-30T11:36:12.854Z,4.34
2019-01-30T11:37:13.731Z,4.49
2019-01-30T11:38:16.112Z,4.50
2019-01-30T11:39:17.003Z,4.52
2019-01-30T11:40:21.448Z,4.55
2019-01-30T11:41:22.354Z,4.51
2019-01-30T11:42:24.142Z,4.41
2019-01-30T11:43:25.018Z,4.51
2019-01-30T11:44:27.882Z,4.14
2019-01-30T11:45:31.789Z,4.44
2019-01-30T11:46:32.686Z,4.43
2019-01-30T11:47:34.077Z,4.59
2019-01-30T11:48:34.938Z,4.63
2019-01-30T11:49:35.911Z,4.62
2019-01-30T11:50:37.860Z,4.42
2019-01-30T11:51:38.779Z,4.21
2019-01-30T11:52:39.670Z,4.36
2019-01-30T11:53:40.524Z,4.24
2019-01-30T11:54:41.421Z,4.16
2019-01-30T11:55:42.334Z,4.40
2019-01-30T11:56:43.241Z,4.41
2019-01-30T11:57:44.110Z,4.69
2019-01-30T11:58:45.011Z,4.75
2019-01-30T11:59:45.881Z,4.75
2019-01-30T12:00:48.676Z,4.81
2019-01-30T12:01:49.645Z,4.79
2019-01-30T12:02:50.524Z,4.81
2019-01-30T12:03:51.376Z,4.76
2019-01-30T12:04:52.266Z,4.78
2019-01-30T12:05:53.260Z,4.86
2019-01-30T12:06:54.133Z,4.50
2019-01-30T12:07:55.010Z,4.33
2019-01-30T12:08:55.871Z,3.92
2019-01-30T12:09:56.750Z,4.19
2019-01-30T12:10:57.732Z,4.55
2019-01-30T12:11:58.563Z,4.57
2019-01-30T12:12:59.426Z,4.80
2019-01-30T12:14:00.298Z,4.28
2019-01-30T12:15:01.154Z,4.16
2019-01-30T12:16:02.055Z,4.21
2019-01-30T12:17:02.918Z,4.20
2019-01-30T12:18:03.918Z,4.49
2019-01-30T12:19:04.789Z,4.62
2019-01-30T12:20:08.987Z,4.36
2019-01-30T12:21:09.888Z,4.12
2019-01-30T12:22:10.850Z,4.63
2019-01-30T12:23:11.714Z,4.64
2019-01-30T12:24:12.576Z,4.70
2019-01-30T12:25:15.830Z,4.75
2019-01-30T12:26:16.726Z,4.86
2019-01-30T12:27:17.597Z,4.72
2019-01-30T12:28:18.458Z,4.84
2019-01-30T12:29:19.317Z,4.80
2019-01-30T12:30:27.659Z,4.88
2019-01-30T12:31:28.694Z,4.93
2019-01-30T12:32:29.547Z,4.50
2019-01-30T12:33:30.440Z,4.77
2019-01-30T12:34:31.304Z,4.67
2019-01-30T12:35:34.524Z,4.78
2019-01-30T12:36:35.388Z,4.48
2019-01-30T12:37:36.268Z,4.78
2019-01-30T12:38:37.138Z,4.87
2019-01-30T12:39:38.042Z,4.73
2019-01-30T12:40:38.926Z,4.21
2019-01-30T12:41:39.785Z,4.30
2019-01-30T12:42:40.946Z,4.41
2019-01-30T12:43:41.834Z,4.43
2019-01-30T12:44:42.688Z,4.63
2019-01-30T12:45:44.575Z,4.59
2019-01-30T12:46:45.437Z,4.71
2019-01-30T12:47:46.302Z,4.62
2019-01-30T12:48:48.864Z,5.02
2019-01-30T12:49:50.030Z,4.91
2019-01-30T12:50:50.968Z,4.84
2019-01-30T12:51:51.828Z,4.88
2019-01-30T12:52:52.686Z,4.80
2019-01-30T12:53:53.540Z,4.80
2019-01-30T12:54:54.425Z,4.68
2019-01-30T12:55:55.312Z,4.72
2019-01-30T12:56:56.178Z,4.59
2019-01-30T12:57:57.151Z,4.89
2019-01-30T12:58:58.017Z,4.97
2019-01-30T12:59:58.879Z,4.85
2019-01-30T13:00:59.738Z,4.85
2019-01-30T13:02:00.598Z,4.69
2019-01-30T13:03:01.495Z,4.87
2019-01-30T13:04:02.452Z,4.76
2019-01-30T13:05:06.719Z,4.86
2019-01-30T13:06:07.582Z,4.89
2019-01-30T13:07:08.544Z,4.86
2019-01-30T13:08:09.416Z,4.66
2019-01-30T13:09:10.289Z,4.84
2019-01-30T13:10:11.144Z,4.69
2019-01-30T13:11:12.001Z,4.79
2019-01-30T13:12:12.863Z,4.85
2019-01-30T13:13:13.764Z,4.72
2019-01-30T13:14:16.524Z,4.28
2019-01-30T13:15:21.187Z,4.90
2019-01-30T13:16:22.047Z,4.90
2019-01-30T13:17:23.269Z,4.83
2019-01-30T13:18:24.162Z,4.64
2019-01-30T13:19:25.014Z,4.95
2019-01-30T13:20:25.880Z,4.36
2019-01-30T13:21:26.735Z,4.45
2019-01-30T13:22:27.600Z,4.93
2019-01-30T13:23:28.506Z,4.74
2019-01-30T13:24:29.382Z,4.79
2019-01-30T13:25:30.555Z,4.72
2019-01-30T13:26:31.416Z,4.58
2019-01-30T13:27:32.270Z,4.66
2019-01-30T13:28:33.186Z,4.76
2019-01-30T13:29:34.124Z,4.72
2019-01-30T13:30:37.104Z,4.79
2019-01-30T13:31:37.950Z,4.75
2019-01-30T13:32:38.819Z,4.74
2019-01-30T13:33:39.718Z,4.99
2019-01-30T13:34:48.785Z,4.64
2019-01-30T13:35:43.353Z,4.61
2019-01-30T13:36:44.216Z,4.62
2019-01-30T13:37:45.120Z,4.73
2019-01-30T13:38:45.961Z,4.64
2019-01-30T13:39:46.822Z,4.55
2019-01-30T13:40:47.738Z,4.77